sensor_id;sensor_type;location;lat;lon;timestamp;temperature;humidity
40676;DHT22;26359;48.750;9.314;2023-08-17T00:00:22;20.30;99.90
40676;DHT22;26359;48.750;9.314;2023-08-17T00:02:47;20.40;99.90
40676;DHT22;26359;48.750;9.314;2023-08-17T00:05:13;20.40;99.90
40676;DHT22;26359;48.750;9.314;2023-08-17T00:07:38;20.40;99.90
40676;DHT22;26359;48.750;9.314;2023-08-17T00:10:04;20.50;99.90
40676;DHT22;26359;48.750;9.314;2023-08-17T00:12:30;20.50;99.90
40676;DHT22;26359;48.750;9.314;2023-08-17T00:14:55;20.50;99.90
40676;DHT22;26359;48.750;9.314;2023-08-17T00:17:21;20.50;99.90
40676;DHT22;26359;48.750;9.314;2023-08-17T00:19:47;20.40;99.90
40676;DHT22;26359;48.750;9.314;2023-08-17T00:22:13;20.50;99.90
40676;DHT22;26359;48.750;9.314;2023-08-17T00:24:38;20.50;99.90
40676;DHT22;26359;48.750;9.314;2023-08-17T00:27:05;20.50;99.90
40676;DHT22;26359;48.750;9.314;2023-08-17T00:29:31;20.50;99.90
40676;DHT22;26359;48.750;9.314;2023-08-17T00:31:57;20.50;99.90
40676;DHT22;26359;48.750;9.314;2023-08-17T00:34:23;20.50;99.90
40676;DHT22;26359;48.750;9.314;2023-08-17T00:36:48;20.50;99.90
40676;DHT22;26359;48.750;9.314;2023-08-17T00:39:14;20.50;99.90
40676;DHT22;26359;48.750;9.314;2023-08-17T00:41:40;20.50;99.90
40676;DHT22;26359;48.750;9.314;2023-08-17T00:44:06;20.60;99.90
40676;DHT22;26359;48.750;9.314;2023-08-17T00:46:31;20.50;99.90
40676;DHT22;26359;48.750;9.314;2023-08-17T00:48:57;20.50;99.90
40676;DHT22;26359;48.750;9.314;2023-08-17T00:51:24;20.50;99.90
40676;DHT22;26359;48.750;9.314;2023-08-17T00:53:51;20.50;99.90
40676;DHT22;26359;48.750;9.314;2023-08-17T00:56:17;20.30;99.90
40676;DHT22;26359;48.750;9.314;2023-08-17T00:58:43;20.40;99.90
40676;DHT22;26359;48.750;9.314;2023-08-17T01:01:09;20.40;99.90
40676;DHT22;26359;48.750;9.314;2023-08-17T01:03:35;20.40;99.90
40676;DHT22;26359;48.750;9.314;2023-08-17T01:06:02;20.50;99.90
40676;DHT22;26359;48.750;9.314;2023-08-17T01:08:29;20.40;99.90
40676;DHT22;26359;48.750;9.314;2023-08-17T01:11:09;20.50;99.90
40676;DHT22;26359;48.750;9.314;2023-08-17T01:14:02;20.50;99.90
40676;DHT22;26359;48.750;9.314;2023-08-17T01:16:33;20.50;99.90
40676;DHT22;26359;48.750;9.314;2023-08-17T01:19:07;20.50;99.90
40676;DHT22;26359;48.750;9.314;2023-08-17T01:21:45;20.50;99.90
40676;DHT22;26359;48.750;9.314;2023-08-17T01:24:11;20.50;99.90
40676;DHT22;26359;48.750;9.314;2023-08-17T01:26:37;20.60;99.90
40676;DHT22;26359;48.750;9.314;2023-08-17T01:29:03;20.60;99.90
40676;DHT22;26359;48.750;9.314;2023-08-17T01:31:40;20.60;99.90
40676;DHT22;26359;48.750;9.314;2023-08-17T01:34:11;20.50;99.90
40676;DHT22;26359;48.750;9.314;2023-08-17T01:36:52;20.50;99.90
40676;DHT22;26359;48.750;9.314;2023-08-17T01:39:23;20.40;99.90
40676;DHT22;26359;48.750;9.314;2023-08-17T01:41:51;20.40;99.90
40676;DHT22;26359;48.750;9.314;2023-08-17T01:44:18;20.40;99.90
40676;DHT22;26359;48.750;9.314;2023-08-17T01:46:43;20.40;99.90
40676;DHT22;26359;48.750;9.314;2023-08-17T01:49:09;20.30;99.90
40676;DHT22;26359;48.750;9.314;2023-08-17T01:51:34;20.40;99.90
40676;DHT22;26359;48.750;9.314;2023-08-17T01:54:00;20.40;99.90
40676;DHT22;26359;48.750;9.314;2023-08-17T01:56:25;20.40;99.90
40676;DHT22;26359;48.750;9.314;2023-08-17T01:58:51;20.40;99.90
40676;DHT22;26359;48.750;9.314;2023-08-17T02:01:16;20.40;99.90
40676;DHT22;26359;48.750;9.314;2023-08-17T02:03:42;20.40;99.90
40676;DHT22;26359;48.750;9.314;2023-08-17T02:06:07;20.30;99.90
40676;DHT22;26359;48.750;9.314;2023-08-17T02:08:33;20.30;99.90
40676;DHT22;26359;48.750;9.314;2023-08-17T02:10:59;20.30;99.90
40676;DHT22;26359;48.750;9.314;2023-08-17T02:13:25;20.30;99.90
40676;DHT22;26359;48.750;9.314;2023-08-17T02:15:52;20.30;99.90
40676;DHT22;26359;48.750;9.314;2023-08-17T02:18:18;20.30;99.90
40676;DHT22;26359;48.750;9.314;2023-08-17T02:20:43;20.30;99.90
40676;DHT22;26359;48.750;9.314;2023-08-17T02:23:09;20.30;99.90
40676;DHT22;26359;48.750;9.314;2023-08-17T02:25:40;20.40;99.90
40676;DHT22;26359;48.750;9.314;2023-08-17T02:28:06;20.30;99.90
40676;DHT22;26359;48.750;9.314;2023-08-17T02:30:31;20.40;99.90
40676;DHT22;26359;48.750;9.314;2023-08-17T02:32:57;20.40;99.90
40676;DHT22;26359;48.750;9.314;2023-08-17T02:35:23;20.40;99.90
40676;DHT22;26359;48.750;9.314;2023-08-17T02:37:48;20.40;99.90
40676;DHT22;26359;48.750;9.314;2023-08-17T02:40:14;20.40;99.90
40676;DHT22;26359;48.750;9.314;2023-08-17T02:42:39;20.40;99.90
40676;DHT22;26359;48.750;9.314;2023-08-17T02:45:06;20.40;99.90
40676;DHT22;26359;48.750;9.314;2023-08-17T02:47:32;20.40;99.90
40676;DHT22;26359;48.750;9.314;2023-08-17T02:49:58;20.40;99.90
40676;DHT22;26359;48.750;9.314;2023-08-17T02:52:23;20.30;99.90
40676;DHT22;26359;48.750;9.314;2023-08-17T02:54:49;20.30;99.90
40676;DHT22;26359;48.750;9.314;2023-08-17T02:57:14;20.30;99.90
40676;DHT22;26359;48.750;9.314;2023-08-17T02:59:40;20.30;99.90
40676;DHT22;26359;48.750;9.314;2023-08-17T03:02:05;20.20;99.90
40676;DHT22;26359;48.750;9.314;2023-08-17T03:04:31;20.20;99.90
40676;DHT22;26359;48.750;9.314;2023-08-17T03:06:58;20.30;99.90
40676;DHT22;26359;48.750;9.314;2023-08-17T03:09:23;20.30;99.90
40676;DHT22;26359;48.750;9.314;2023-08-17T03:11:49;20.30;99.90
40676;DHT22;26359;48.750;9.314;2023-08-17T03:14:14;20.20;99.90
40676;DHT22;26359;48.750;9.314;2023-08-17T03:16:40;20.30;99.90
40676;DHT22;26359;48.750;9.314;2023-08-17T03:19:06;20.30;99.90
40676;DHT22;26359;48.750;9.314;2023-08-17T03:21:33;20.20;99.90
40676;DHT22;26359;48.750;9.314;2023-08-17T03:23:59;20.20;99.90
40676;DHT22;26359;48.750;9.314;2023-08-17T03:26:24;20.20;99.90
40676;DHT22;26359;48.750;9.314;2023-08-17T03:28:50;20.10;99.90
40676;DHT22;26359;48.750;9.314;2023-08-17T03:31:15;20.00;99.90
40676;DHT22;26359;48.750;9.314;2023-08-17T03:33:41;20.00;99.90
40676;DHT22;26359;48.750;9.314;2023-08-17T03:36:06;20.00;99.90
40676;DHT22;26359;48.750;9.314;2023-08-17T03:38:32;20.00;99.90
40676;DHT22;26359;48.750;9.314;2023-08-17T03:40:57;20.00;99.90
40676;DHT22;26359;48.750;9.314;2023-08-17T03:43:23;20.00;99.90
40676;DHT22;26359;48.750;9.314;2023-08-17T03:45:49;20.00;99.90
40676;DHT22;26359;48.750;9.314;2023-08-17T03:48:14;20.00;99.90
40676;DHT22;26359;48.750;9.314;2023-08-17T03:50:39;19.90;99.90
40676;DHT22;26359;48.750;9.314;2023-08-17T03:53:05;19.90;99.90
40676;DHT22;26359;48.750;9.314;2023-08-17T03:55:31;19.90;99.90
40676;DHT22;26359;48.750;9.314;2023-08-17T03:57:56;19.80;99.90
40676;DHT22;26359;48.750;9.314;2023-08-17T04:00:22;19.80;99.90
40676;DHT22;26359;48.750;9.314;2023-08-17T04:02:47;19.80;99.90
40676;DHT22;26359;48.750;9.314;2023-08-17T04:05:13;19.70;99.90
40676;DHT22;26359;48.750;9.314;2023-08-17T04:07:38;19.70;99.90
40676;DHT22;26359;48.750;9.314;2023-08-17T04:10:08;19.70;99.90
40676;DHT22;26359;48.750;9.314;2023-08-17T04:12:33;19.70;99.90
40676;DHT22;26359;48.750;9.314;2023-08-17T04:14:59;19.70;99.90
40676;DHT22;26359;48.750;9.314;2023-08-17T04:17:24;19.70;99.90
40676;DHT22;26359;48.750;9.314;2023-08-17T04:19:50;19.70;99.90
40676;DHT22;26359;48.750;9.314;2023-08-17T04:22:16;19.70;99.90
40676;DHT22;26359;48.750;9.314;2023-08-17T04:24:41;19.80;99.90
40676;DHT22;26359;48.750;9.314;2023-08-17T04:27:07;19.80;99.90
40676;DHT22;26359;48.750;9.314;2023-08-17T04:29:32;19.80;99.90
40676;DHT22;26359;48.750;9.314;2023-08-17T04:31:58;19.80;99.90
40676;DHT22;26359;48.750;9.314;2023-08-17T04:34:24;19.80;99.90
40676;DHT22;26359;48.750;9.314;2023-08-17T04:36:50;19.80;99.90
40676;DHT22;26359;48.750;9.314;2023-08-17T04:39:16;19.80;99.90
40676;DHT22;26359;48.750;9.314;2023-08-17T04:41:41;19.80;99.90
40676;DHT22;26359;48.750;9.314;2023-08-17T04:44:07;19.80;99.90
40676;DHT22;26359;48.750;9.314;2023-08-17T04:46:32;19.90;99.90
40676;DHT22;26359;48.750;9.314;2023-08-17T04:48:58;19.90;99.90
40676;DHT22;26359;48.750;9.314;2023-08-17T04:51:23;19.80;99.90
40676;DHT22;26359;48.750;9.314;2023-08-17T04:53:49;19.80;99.90
40676;DHT22;26359;48.750;9.314;2023-08-17T04:56:15;19.80;99.90
40676;DHT22;26359;48.750;9.314;2023-08-17T04:58:40;19.80;99.90
40676;DHT22;26359;48.750;9.314;2023-08-17T05:01:06;19.80;99.90
40676;DHT22;26359;48.750;9.314;2023-08-17T05:03:31;19.80;99.90
40676;DHT22;26359;48.750;9.314;2023-08-17T05:05:57;19.90;99.90
40676;DHT22;26359;48.750;9.314;2023-08-17T05:08:22;19.90;99.90
40676;DHT22;26359;48.750;9.314;2023-08-17T05:10:48;19.90;99.90
40676;DHT22;26359;48.750;9.314;2023-08-17T05:13:14;19.90;99.90
40676;DHT22;26359;48.750;9.314;2023-08-17T05:15:39;20.00;99.90
40676;DHT22;26359;48.750;9.314;2023-08-17T05:18:05;19.90;99.90
40676;DHT22;26359;48.750;9.314;2023-08-17T05:20:31;19.90;99.90
40676;DHT22;26359;48.750;9.314;2023-08-17T05:22:56;19.90;99.90
40676;DHT22;26359;48.750;9.314;2023-08-17T05:25:22;19.90;99.90
40676;DHT22;26359;48.750;9.314;2023-08-17T05:27:48;19.90;99.90
40676;DHT22;26359;48.750;9.314;2023-08-17T05:30:14;20.00;99.90
40676;DHT22;26359;48.750;9.314;2023-08-17T05:32:40;19.90;99.90
40676;DHT22;26359;48.750;9.314;2023-08-17T05:35:06;20.00;99.90
40676;DHT22;26359;48.750;9.314;2023-08-17T05:37:32;20.00;99.90
40676;DHT22;26359;48.750;9.314;2023-08-17T05:39:57;20.10;99.90
40676;DHT22;26359;48.750;9.314;2023-08-17T05:42:23;20.10;99.90
40676;DHT22;26359;48.750;9.314;2023-08-17T05:44:49;20.10;99.90
40676;DHT22;26359;48.750;9.314;2023-08-17T05:47:14;20.10;99.90
40676;DHT22;26359;48.750;9.314;2023-08-17T05:49:43;20.10;99.90
40676;DHT22;26359;48.750;9.314;2023-08-17T05:52:08;20.10;99.90
40676;DHT22;26359;48.750;9.314;2023-08-17T05:54:34;20.10;99.90
40676;DHT22;26359;48.750;9.314;2023-08-17T05:56:59;20.10;99.90
40676;DHT22;26359;48.750;9.314;2023-08-17T05:59:25;20.10;99.90
40676;DHT22;26359;48.750;9.314;2023-08-17T06:01:50;20.20;99.90
40676;DHT22;26359;48.750;9.314;2023-08-17T06:04:16;20.20;99.90
40676;DHT22;26359;48.750;9.314;2023-08-17T06:06:42;20.20;99.90
40676;DHT22;26359;48.750;9.314;2023-08-17T06:09:07;20.20;99.90
40676;DHT22;26359;48.750;9.314;2023-08-17T06:11:34;20.20;99.90
40676;DHT22;26359;48.750;9.314;2023-08-17T06:14:00;20.20;99.90
40676;DHT22;26359;48.750;9.314;2023-08-17T06:16:25;20.20;99.90
40676;DHT22;26359;48.750;9.314;2023-08-17T06:18:51;20.20;99.90
40676;DHT22;26359;48.750;9.314;2023-08-17T06:21:16;20.20;99.90
40676;DHT22;26359;48.750;9.314;2023-08-17T06:23:42;20.20;99.90
40676;DHT22;26359;48.750;9.314;2023-08-17T06:26:07;20.10;99.90
40676;DHT22;26359;48.750;9.314;2023-08-17T06:28:33;20.20;99.90
40676;DHT22;26359;48.750;9.314;2023-08-17T06:30:58;20.30;99.90
40676;DHT22;26359;48.750;9.314;2023-08-17T06:33:24;20.30;99.90
40676;DHT22;26359;48.750;9.314;2023-08-17T06:35:50;20.30;99.90
40676;DHT22;26359;48.750;9.314;2023-08-17T06:38:16;20.30;99.90
40676;DHT22;26359;48.750;9.314;2023-08-17T06:40:42;20.30;99.90
40676;DHT22;26359;48.750;9.314;2023-08-17T06:43:07;20.40;99.90
40676;DHT22;26359;48.750;9.314;2023-08-17T06:45:34;20.40;99.90
40676;DHT22;26359;48.750;9.314;2023-08-17T06:47:59;20.50;99.90
40676;DHT22;26359;48.750;9.314;2023-08-17T06:50:25;20.50;99.90
40676;DHT22;26359;48.750;9.314;2023-08-17T06:52:52;20.60;99.90
40676;DHT22;26359;48.750;9.314;2023-08-17T06:55:17;20.60;99.90
40676;DHT22;26359;48.750;9.314;2023-08-17T06:57:43;20.60;99.90
40676;DHT22;26359;48.750;9.314;2023-08-17T07:00:09;20.70;99.90
40676;DHT22;26359;48.750;9.314;2023-08-17T07:02:36;20.80;99.90
40676;DHT22;26359;48.750;9.314;2023-08-17T07:05:02;20.80;99.90
40676;DHT22;26359;48.750;9.314;2023-08-17T07:07:29;20.80;99.90
40676;DHT22;26359;48.750;9.314;2023-08-17T07:09:57;20.80;99.90
40676;DHT22;26359;48.750;9.314;2023-08-17T07:12:22;20.80;99.90
40676;DHT22;26359;48.750;9.314;2023-08-17T07:14:49;20.80;99.90
40676;DHT22;26359;48.750;9.314;2023-08-17T07:17:15;20.80;99.90
40676;DHT22;26359;48.750;9.314;2023-08-17T07:19:41;21.00;99.90
40676;DHT22;26359;48.750;9.314;2023-08-17T07:22:06;21.10;99.90
40676;DHT22;26359;48.750;9.314;2023-08-17T07:24:32;21.10;99.90
40676;DHT22;26359;48.750;9.314;2023-08-17T07:26:57;21.20;99.90
40676;DHT22;26359;48.750;9.314;2023-08-17T07:29:23;21.30;99.90
40676;DHT22;26359;48.750;9.314;2023-08-17T07:31:48;21.30;99.90
40676;DHT22;26359;48.750;9.314;2023-08-17T07:34:14;21.30;99.90
40676;DHT22;26359;48.750;9.314;2023-08-17T07:36:39;21.30;99.90
40676;DHT22;26359;48.750;9.314;2023-08-17T07:39:05;21.30;99.90
40676;DHT22;26359;48.750;9.314;2023-08-17T07:41:31;21.40;99.90
40676;DHT22;26359;48.750;9.314;2023-08-17T07:43:56;21.50;99.90
40676;DHT22;26359;48.750;9.314;2023-08-17T07:46:22;21.40;99.90
40676;DHT22;26359;48.750;9.314;2023-08-17T07:48:48;21.40;99.90
40676;DHT22;26359;48.750;9.314;2023-08-17T07:51:14;21.30;99.90
40676;DHT22;26359;48.750;9.314;2023-08-17T07:53:39;21.30;99.90
40676;DHT22;26359;48.750;9.314;2023-08-17T07:56:05;21.30;99.90
40676;DHT22;26359;48.750;9.314;2023-08-17T07:58:30;21.30;99.90
40676;DHT22;26359;48.750;9.314;2023-08-17T08:00:56;21.20;99.90
40676;DHT22;26359;48.750;9.314;2023-08-17T08:03:21;21.30;99.90
40676;DHT22;26359;48.750;9.314;2023-08-17T08:05:47;21.30;99.90
40676;DHT22;26359;48.750;9.314;2023-08-17T08:08:13;21.40;99.90
40676;DHT22;26359;48.750;9.314;2023-08-17T08:10:40;21.50;99.90
40676;DHT22;26359;48.750;9.314;2023-08-17T08:13:05;21.60;99.90
40676;DHT22;26359;48.750;9.314;2023-08-17T08:15:33;21.50;99.90
40676;DHT22;26359;48.750;9.314;2023-08-17T08:17:58;21.50;99.90
40676;DHT22;26359;48.750;9.314;2023-08-17T08:20:24;21.50;99.90
40676;DHT22;26359;48.750;9.314;2023-08-17T08:22:49;21.50;99.90
40676;DHT22;26359;48.750;9.314;2023-08-17T08:25:15;21.40;99.90
40676;DHT22;26359;48.750;9.314;2023-08-17T08:27:40;21.50;99.90
40676;DHT22;26359;48.750;9.314;2023-08-17T08:30:06;21.50;99.90
40676;DHT22;26359;48.750;9.314;2023-08-17T08:32:32;21.60;99.90
40676;DHT22;26359;48.750;9.314;2023-08-17T08:34:58;21.50;99.90
40676;DHT22;26359;48.750;9.314;2023-08-17T08:37:23;21.60;99.90
40676;DHT22;26359;48.750;9.314;2023-08-17T08:39:50;21.60;99.90
40676;DHT22;26359;48.750;9.314;2023-08-17T08:42:19;21.60;99.90
40676;DHT22;26359;48.750;9.314;2023-08-17T08:44:45;21.70;99.90
40676;DHT22;26359;48.750;9.314;2023-08-17T08:47:13;21.70;99.90
40676;DHT22;26359;48.750;9.314;2023-08-17T08:49:40;21.80;99.90
40676;DHT22;26359;48.750;9.314;2023-08-17T08:52:13;21.90;99.90
40676;DHT22;26359;48.750;9.314;2023-08-17T08:54:43;22.00;99.90
40676;DHT22;26359;48.750;9.314;2023-08-17T08:57:13;22.10;99.90
40676;DHT22;26359;48.750;9.314;2023-08-17T08:59:41;22.10;99.90
40676;DHT22;26359;48.750;9.314;2023-08-17T09:02:15;22.10;99.90
40676;DHT22;26359;48.750;9.314;2023-08-17T09:04:44;22.20;99.90
40676;DHT22;26359;48.750;9.314;2023-08-17T09:07:12;22.20;99.90
40676;DHT22;26359;48.750;9.314;2023-08-17T09:09:38;22.30;99.90
40676;DHT22;26359;48.750;9.314;2023-08-17T09:12:06;22.30;99.90
40676;DHT22;26359;48.750;9.314;2023-08-17T09:14:32;22.40;99.90
40676;DHT22;26359;48.750;9.314;2023-08-17T09:16:58;22.50;99.90
40676;DHT22;26359;48.750;9.314;2023-08-17T09:19:24;22.50;99.90
40676;DHT22;26359;48.750;9.314;2023-08-17T09:21:50;22.70;99.90
40676;DHT22;26359;48.750;9.314;2023-08-17T09:24:16;22.80;99.90
40676;DHT22;26359;48.750;9.314;2023-08-17T09:26:41;23.00;99.90
40676;DHT22;26359;48.750;9.314;2023-08-17T09:29:18;23.00;99.90
40676;DHT22;26359;48.750;9.314;2023-08-17T09:31:43;23.10;99.90
40676;DHT22;26359;48.750;9.314;2023-08-17T09:34:09;23.10;99.90
40676;DHT22;26359;48.750;9.314;2023-08-17T09:36:35;23.20;99.90
40676;DHT22;26359;48.750;9.314;2023-08-17T09:39:01;23.30;99.90
40676;DHT22;26359;48.750;9.314;2023-08-17T09:41:28;23.50;99.90
40676;DHT22;26359;48.750;9.314;2023-08-17T09:43:55;23.60;99.90
40676;DHT22;26359;48.750;9.314;2023-08-17T09:46:21;23.70;99.90
40676;DHT22;26359;48.750;9.314;2023-08-17T09:48:47;23.80;99.90
40676;DHT22;26359;48.750;9.314;2023-08-17T09:51:16;23.90;99.90
40676;DHT22;26359;48.750;9.314;2023-08-17T09:53:42;24.00;99.90
40676;DHT22;26359;48.750;9.314;2023-08-17T09:56:07;24.20;99.90
40676;DHT22;26359;48.750;9.314;2023-08-17T09:58:38;24.40;99.90
40676;DHT22;26359;48.750;9.314;2023-08-17T10:01:04;24.50;99.90
40676;DHT22;26359;48.750;9.314;2023-08-17T10:03:33;24.50;99.90
40676;DHT22;26359;48.750;9.314;2023-08-17T10:06:04;24.50;99.90
40676;DHT22;26359;48.750;9.314;2023-08-17T10:08:33;24.60;99.90
40676;DHT22;26359;48.750;9.314;2023-08-17T10:11:02;24.70;99.90
40676;DHT22;26359;48.750;9.314;2023-08-17T10:13:52;24.70;99.90
40676;DHT22;26359;48.750;9.314;2023-08-17T10:16:45;24.80;99.90
40676;DHT22;26359;48.750;9.314;2023-08-17T10:19:43;25.00;99.90
40676;DHT22;26359;48.750;9.314;2023-08-17T10:23:18;25.20;99.90
40676;DHT22;26359;48.750;9.314;2023-08-17T10:25:12;25.50;99.90
40676;DHT22;26359;48.750;9.314;2023-08-17T10:27:40;25.60;99.90
40676;DHT22;26359;48.750;9.314;2023-08-17T10:30:10;25.70;99.90
40676;DHT22;26359;48.750;9.314;2023-08-17T10:32:36;25.80;99.90
40676;DHT22;26359;48.750;9.314;2023-08-17T10:35:02;25.90;99.90
40676;DHT22;26359;48.750;9.314;2023-08-17T10:37:28;26.20;99.90
40676;DHT22;26359;48.750;9.314;2023-08-17T10:39:54;26.40;99.90
40676;DHT22;26359;48.750;9.314;2023-08-17T10:42:33;26.70;99.90
40676;DHT22;26359;48.750;9.314;2023-08-17T10:44:59;27.00;99.90
40676;DHT22;26359;48.750;9.314;2023-08-17T10:47:31;27.30;99.90
40676;DHT22;26359;48.750;9.314;2023-08-17T10:50:24;27.60;99.90
40676;DHT22;26359;48.750;9.314;2023-08-17T10:52:51;28.00;99.90
40676;DHT22;26359;48.750;9.314;2023-08-17T10:55:35;28.20;99.90
40676;DHT22;26359;48.750;9.314;2023-08-17T10:58:01;28.10;99.90
40676;DHT22;26359;48.750;9.314;2023-08-17T11:00:33;28.10;99.90
40676;DHT22;26359;48.750;9.314;2023-08-17T11:03:06;28.30;99.90
40676;DHT22;26359;48.750;9.314;2023-08-17T11:08:20;28.70;99.90
40676;DHT22;26359;48.750;9.314;2023-08-17T11:11:09;29.10;99.90
40676;DHT22;26359;48.750;9.314;2023-08-17T11:13:38;29.40;99.90
40676;DHT22;26359;48.750;9.314;2023-08-17T11:16:04;29.50;99.90
40676;DHT22;26359;48.750;9.314;2023-08-17T11:18:33;29.70;99.90
40676;DHT22;26359;48.750;9.314;2023-08-17T11:21:01;29.70;99.90
40676;DHT22;26359;48.750;9.314;2023-08-17T11:23:29;29.80;99.90
40676;DHT22;26359;48.750;9.314;2023-08-17T11:25:56;29.90;99.90
40676;DHT22;26359;48.750;9.314;2023-08-17T11:28:22;30.10;99.90
40676;DHT22;26359;48.750;9.314;2023-08-17T11:31:00;30.10;99.90
40676;DHT22;26359;48.750;9.314;2023-08-17T11:33:27;30.20;99.90
40676;DHT22;26359;48.750;9.314;2023-08-17T11:36:00;30.40;99.90
40676;DHT22;26359;48.750;9.314;2023-08-17T11:38:30;30.30;99.90
40676;DHT22;26359;48.750;9.314;2023-08-17T11:40:58;30.10;99.90
40676;DHT22;26359;48.750;9.314;2023-08-17T11:43:24;30.00;99.90
40676;DHT22;26359;48.750;9.314;2023-08-17T11:45:50;30.10;99.90
40676;DHT22;26359;48.750;9.314;2023-08-17T11:48:18;30.10;99.90
40676;DHT22;26359;48.750;9.314;2023-08-17T11:50:44;30.10;99.90
40676;DHT22;26359;48.750;9.314;2023-08-17T11:53:10;30.10;99.90
40676;DHT22;26359;48.750;9.314;2023-08-17T11:55:36;30.40;99.90
40676;DHT22;26359;48.750;9.314;2023-08-17T11:58:03;30.80;99.90
40676;DHT22;26359;48.750;9.314;2023-08-17T12:00:39;31.10;99.90
40676;DHT22;26359;48.750;9.314;2023-08-17T12:03:06;31.00;99.90
40676;DHT22;26359;48.750;9.314;2023-08-17T12:05:32;30.60;99.90
40676;DHT22;26359;48.750;9.314;2023-08-17T12:08:02;30.40;99.90
40676;DHT22;26359;48.750;9.314;2023-08-17T12:10:28;30.20;99.90
40676;DHT22;26359;48.750;9.314;2023-08-17T12:12:58;30.00;99.90
40676;DHT22;26359;48.750;9.314;2023-08-17T12:15:33;29.60;99.90
40676;DHT22;26359;48.750;9.314;2023-08-17T12:18:02;29.30;99.90
40676;DHT22;26359;48.750;9.314;2023-08-17T12:20:28;29.10;99.90
40676;DHT22;26359;48.750;9.314;2023-08-17T12:22:57;28.90;99.90
40676;DHT22;26359;48.750;9.314;2023-08-17T12:25:23;28.70;99.90
40676;DHT22;26359;48.750;9.314;2023-08-17T12:27:49;28.50;99.90
40676;DHT22;26359;48.750;9.314;2023-08-17T12:30:28;28.50;99.90
40676;DHT22;26359;48.750;9.314;2023-08-17T12:32:54;28.40;99.90
40676;DHT22;26359;48.750;9.314;2023-08-17T12:35:19;28.40;99.90
40676;DHT22;26359;48.750;9.314;2023-08-17T12:37:47;28.30;99.90
40676;DHT22;26359;48.750;9.314;2023-08-17T12:40:13;28.30;99.90
40676;DHT22;26359;48.750;9.314;2023-08-17T12:42:38;28.20;99.90
40676;DHT22;26359;48.750;9.314;2023-08-17T12:45:04;28.20;99.90
40676;DHT22;26359;48.750;9.314;2023-08-17T12:47:30;28.00;99.90
40676;DHT22;26359;48.750;9.314;2023-08-17T12:49:55;28.00;99.90
40676;DHT22;26359;48.750;9.314;2023-08-17T12:52:21;27.90;99.90
40676;DHT22;26359;48.750;9.314;2023-08-17T12:54:46;27.70;99.90
40676;DHT22;26359;48.750;9.314;2023-08-17T12:57:12;27.60;99.90
40676;DHT22;26359;48.750;9.314;2023-08-17T12:59:37;27.50;99.90
40676;DHT22;26359;48.750;9.314;2023-08-17T13:02:03;27.40;99.90
40676;DHT22;26359;48.750;9.314;2023-08-17T13:04:28;27.20;99.90
40676;DHT22;26359;48.750;9.314;2023-08-17T13:06:54;27.10;99.90
40676;DHT22;26359;48.750;9.314;2023-08-17T13:09:20;27.00;99.90
40676;DHT22;26359;48.750;9.314;2023-08-17T13:11:46;26.90;99.90
40676;DHT22;26359;48.750;9.314;2023-08-17T13:14:13;26.80;99.90
40676;DHT22;26359;48.750;9.314;2023-08-17T13:16:39;26.80;99.90
40676;DHT22;26359;48.750;9.314;2023-08-17T13:19:04;26.70;99.90
40676;DHT22;26359;48.750;9.314;2023-08-17T13:21:30;26.70;99.90
40676;DHT22;26359;48.750;9.314;2023-08-17T13:23:55;26.60;99.90
40676;DHT22;26359;48.750;9.314;2023-08-17T13:26:22;26.40;99.90
40676;DHT22;26359;48.750;9.314;2023-08-17T13:28:48;26.40;99.90
40676;DHT22;26359;48.750;9.314;2023-08-17T13:31:13;26.30;99.90
40676;DHT22;26359;48.750;9.314;2023-08-17T13:33:39;26.20;99.90
40676;DHT22;26359;48.750;9.314;2023-08-17T13:36:04;26.10;99.90
40676;DHT22;26359;48.750;9.314;2023-08-17T13:38:30;26.00;99.90
40676;DHT22;26359;48.750;9.314;2023-08-17T13:40:56;25.90;99.90
40676;DHT22;26359;48.750;9.314;2023-08-17T13:43:22;25.90;99.90
40676;DHT22;26359;48.750;9.314;2023-08-17T13:45:48;25.80;99.90
40676;DHT22;26359;48.750;9.314;2023-08-17T13:48:13;25.70;99.90
40676;DHT22;26359;48.750;9.314;2023-08-17T13:50:39;25.70;99.90
40676;DHT22;26359;48.750;9.314;2023-08-17T13:53:05;25.60;99.90
40676;DHT22;26359;48.750;9.314;2023-08-17T13:55:30;25.60;99.90
40676;DHT22;26359;48.750;9.314;2023-08-17T13:57:57;25.60;99.90
40676;DHT22;26359;48.750;9.314;2023-08-17T14:00:24;25.60;99.90
40676;DHT22;26359;48.750;9.314;2023-08-17T14:02:49;25.50;99.90
40676;DHT22;26359;48.750;9.314;2023-08-17T14:05:15;25.40;99.90
40676;DHT22;26359;48.750;9.314;2023-08-17T14:07:40;25.30;99.90
40676;DHT22;26359;48.750;9.314;2023-08-17T14:10:06;25.30;99.90
40676;DHT22;26359;48.750;9.314;2023-08-17T14:12:32;25.20;99.90
40676;DHT22;26359;48.750;9.314;2023-08-17T14:14:57;25.20;99.90
40676;DHT22;26359;48.750;9.314;2023-08-17T14:17:24;25.10;99.90
40676;DHT22;26359;48.750;9.314;2023-08-17T14:19:49;25.00;99.90
40676;DHT22;26359;48.750;9.314;2023-08-17T14:22:15;25.00;99.90
40676;DHT22;26359;48.750;9.314;2023-08-17T14:24:40;25.00;99.90
40676;DHT22;26359;48.750;9.314;2023-08-17T14:27:06;24.80;99.90
40676;DHT22;26359;48.750;9.314;2023-08-17T14:29:31;24.80;99.90
40676;DHT22;26359;48.750;9.314;2023-08-17T14:31:57;24.80;99.90
40676;DHT22;26359;48.750;9.314;2023-08-17T14:34:22;24.80;99.90
40676;DHT22;26359;48.750;9.314;2023-08-17T14:36:48;24.80;99.90
40676;DHT22;26359;48.750;9.314;2023-08-17T14:39:13;24.80;99.90
40676;DHT22;26359;48.750;9.314;2023-08-17T14:41:39;24.80;99.90
40676;DHT22;26359;48.750;9.314;2023-08-17T14:44:04;24.70;99.90
40676;DHT22;26359;48.750;9.314;2023-08-17T14:46:30;24.80;99.90
40676;DHT22;26359;48.750;9.314;2023-08-17T14:48:56;24.80;99.90
40676;DHT22;26359;48.750;9.314;2023-08-17T14:51:21;24.70;99.90
40676;DHT22;26359;48.750;9.314;2023-08-17T14:53:48;24.80;99.90
40676;DHT22;26359;48.750;9.314;2023-08-17T14:56:13;24.80;99.90
40676;DHT22;26359;48.750;9.314;2023-08-17T14:58:39;24.80;99.90
40676;DHT22;26359;48.750;9.314;2023-08-17T15:01:04;24.80;99.90
40676;DHT22;26359;48.750;9.314;2023-08-17T15:03:30;24.70;99.90
40676;DHT22;26359;48.750;9.314;2023-08-17T15:05:55;24.80;99.90
40676;DHT22;26359;48.750;9.314;2023-08-17T15:08:21;24.70;99.90
40676;DHT22;26359;48.750;9.314;2023-08-17T15:10:47;24.80;99.90
40676;DHT22;26359;48.750;9.314;2023-08-17T15:13:14;24.70;99.90
40676;DHT22;26359;48.750;9.314;2023-08-17T15:15:40;24.70;99.90
40676;DHT22;26359;48.750;9.314;2023-08-17T15:18:07;24.80;99.90
40676;DHT22;26359;48.750;9.314;2023-08-17T15:20:33;24.70;99.90
40676;DHT22;26359;48.750;9.314;2023-08-17T15:22:58;24.70;99.90
40676;DHT22;26359;48.750;9.314;2023-08-17T15:25:24;24.80;99.90
40676;DHT22;26359;48.750;9.314;2023-08-17T15:27:49;24.70;99.90
40676;DHT22;26359;48.750;9.314;2023-08-17T15:30:15;24.80;99.90